Time;durP1;ratioP1;P1;durP2;ratioP2;P2;SDS_P1;SDS_P2;PMS_P1;PMS_P2;Temp;Humidity;BMP_temperature;BMP_pressure;BME280_temperature;BME280_humidity;BME280_pressure;Samples;Min_cycle;Max_cycle;Signal;HPM_P1;HPM_P2
2023/01/12 00:01:06;;;;;;;7.00;1.50;;;;;;;-145.69;100.00;52654.31;5073379;28;20202;-81
2023/01/12 00:03:32;;;;;;;11.97;1.73;;;;;;;-145.69;100.00;52652.34;5073634;28;20561;-80
2023/01/12 00:06:00;;;;;;;9.60;1.47;;;;;;;-145.69;100.00;52654.31;5073540;28;20293;-79
2023/01/12 00:08:27;;;;;;;9.83;1.40;;;;;;;-145.69;100.00;52660.25;5073305;28;20202;-81
2023/01/12 00:10:55;;;;;;;4.67;1.50;;;;;;;-145.69;100.00;52668.19;5072987;28;20222;-80
2023/01/12 00:13:21;;;;;;;7.37;1.57;;;;;;;-145.69;100.00;52682.03;5073205;28;20198;-80
2023/01/12 00:18:28;;;;;;;9.27;1.67;;;;;;;-145.69;100.00;52650.34;5072062;28;20230;-80
2023/01/12 00:20:55;;;;;;;12.40;1.33;;;;;;;-145.69;100.00;52674.13;5073340;28;20558;-80
2023/01/12 00:23:28;;;;;;;6.07;1.73;;;;;;;-145.69;100.00;52691.94;5072785;28;20199;-80
2023/01/12 00:25:54;;;;;;;7.47;1.30;;;;;;;-145.69;100.00;52658.28;5072710;28;20221;-80
2023/01/12 00:28:21;;;;;;;9.80;1.60;;;;;;;-145.69;100.00;52670.16;5072870;28;20771;-79
2023/01/12 00:30:47;;;;;;;8.97;1.77;;;;;;;-145.69;100.00;52644.41;5073229;28;20218;-80
2023/01/12 00:33:13;;;;;;;20.07;1.80;;;;;;;-145.69;100.00;52678.09;5073052;28;20199;-80
2023/01/12 00:35:40;;;;;;;9.40;1.57;;;;;;;-145.69;100.00;52674.13;5072876;28;20198;-81
2023/01/12 00:38:06;;;;;;;6.37;1.67;;;;;;;-145.69;100.00;52646.41;5073013;28;20238;-80
2023/01/12 00:40:36;;;;;;;4.70;1.80;;;;;;;-145.69;100.00;52654.31;5072900;28;20206;-80
2023/01/12 00:45:49;;;;;;;8.53;1.40;;;;;;;-145.69;100.00;52680.06;5072696;28;20202;-80
2023/01/12 00:48:15;;;;;;;8.57;1.57;;;;;;;-145.69;100.00;52676.09;5072905;28;20206;-80
2023/01/12 00:50:42;;;;;;;7.10;1.40;;;;;;;-145.69;100.00;52678.09;5072978;28;20195;-80
2023/01/12 00:53:08;;;;;;;11.50;1.70;;;;;;;-145.69;100.00;52703.81;5072605;28;20203;-81
2023/01/12 00:55:36;;;;;;;6.90;1.30;;;;;;;-145.69;100.00;52670.16;5072521;28;20199;-80
2023/01/12 00:58:02;;;;;;;4.53;1.30;;;;;;;-145.69;100.00;52656.28;5072990;28;20555;-80
2023/01/12 01:00:29;;;;;;;7.90;1.63;;;;;;;-145.69;100.00;52646.41;5072533;28;20199;-81
2023/01/12 01:02:55;;;;;;;13.70;2.10;;;;;;;-145.69;100.00;52642.44;5072663;28;20206;-81
2023/01/12 01:05:22;;;;;;;17.00;1.77;;;;;;;-145.69;100.00;52606.78;5072163;28;20195;-80
2023/01/12 01:07:48;;;;;;;3.33;1.20;;;;;;;-145.69;100.00;52646.41;5072655;28;20573;-81
2023/01/12 01:10:16;;;;;;;4.47;1.53;;;;;;;-145.69;100.00;52632.53;5069929;28;20206;-80
2023/01/12 01:12:44;;;;;;;5.17;1.50;;;;;;;-145.69;100.00;52662.22;5072500;28;20194;-81
2023/01/12 01:15:11;;;;;;;7.27;1.67;;;;;;;-145.69;100.00;52638.47;5072858;28;20256;-80
2023/01/12 01:17:38;;;;;;;8.87;1.30;;;;;;;-145.69;100.00;52638.47;5072432;28;20222;-80
2023/01/12 01:20:05;;;;;;;4.87;1.30;;;;;;;-145.69;100.00;52656.28;5072295;28;20206;-80
2023/01/12 01:22:31;;;;;;;5.77;1.40;;;;;;;-145.69;100.00;52618.66;5072374;28;20191;-79
2023/01/12 01:24:58;;;;;;;12.73;1.70;;;;;;;-145.69;100.00;52678.09;5072559;28;20245;-80
2023/01/12 01:27:24;;;;;;;9.33;1.47;;;;;;;-145.69;100.00;52646.41;5072198;28;20203;-80
2023/01/12 01:29:52;;;;;;;5.27;1.70;;;;;;;-145.69;100.00;52664.22;5073161;28;20198;-80
2023/01/12 01:32:19;;;;;;;3.87;1.23;;;;;;;-145.69;100.00;52646.41;5076102;28;20198;-81
2023/01/12 01:34:46;;;;;;;11.67;1.60;;;;;;;-145.69;100.00;52634.50;5075749;28;20263;-80
2023/01/12 01:37:13;;;;;;;8.00;1.30;;;;;;;-145.69;100.00;52686.00;5055782;28;20211;-80
2023/01/12 01:39:39;;;;;;;7.43;1.40;;;;;;;-145.69;100.00;52658.28;5056424;28;20199;-80
2023/01/12 01:42:26;;;;;;;7.90;1.57;;;;;;;-145.69;100.00;52644.41;5056474;28;20291;-80
2023/01/12 01:44:56;;;;;;;4.67;1.30;;;;;;;-145.69;100.00;52616.69;5055581;28;20231;-81
2023/01/12 01:47:28;;;;;;;5.77;1.40;;;;;;;-145.69;100.00;52646.41;5067509;28;20676;-80
2023/01/12 01:49:58;;;;;;;10.47;1.50;;;;;;;-145.69;100.00;52652.34;5076396;28;20199;-79
2023/01/12 01:52:29;;;;;;;7.40;1.50;;;;;;;-145.69;100.00;52622.63;5076399;28;20195;-81
2023/01/12 01:55:02;;;;;;;9.67;1.50;;;;;;;-145.69;100.00;52630.53;5075197;28;20210;-80
2023/01/12 01:57:36;;;;;;;4.70;1.70;;;;;;;-145.69;100.00;52660.25;5075917;28;20692;-80
2023/01/12 02:00:07;;;;;;;12.50;2.40;;;;;;;-145.69;100.00;52630.53;5075763;28;20198;-81
2023/01/12 02:02:35;;;;;;;8.47;1.30;;;;;;;-145.69;100.00;52592.91;5075943;28;20210;-80
2023/01/12 02:05:02;;;;;;;7.63;1.70;;;;;;;-145.69;100.00;52662.22;5075512;28;20673;-81
2023/01/12 02:07:28;;;;;;;8.18;1.52;;;;;;;-145.69;100.00;52666.19;5074967;28;20434;-81
2023/01/12 02:09:55;;;;;;;9.80;1.30;;;;;;;-145.69;100.00;52650.34;5075702;28;20191;-81
2023/01/12 02:18:09;;;;;;;8.37;1.47;;;;;;;-145.69;100.00;52638.47;5074355;28;20229;-80
2023/01/12 02:20:47;;;;;;;7.03;1.33;;;;;;;-145.69;100.00;52622.63;5075161;28;20205;-81
2023/01/12 02:23:44;;;;;;;7.57;1.50;;;;;;;-145.69;100.00;52614.72;5075462;28;20203;-80
2023/01/12 02:26:37;;;;;;;6.63;1.30;;;;;;;-145.69;100.00;52642.44;5075567;28;20199;-81
2023/01/12 02:29:32;;;;;;;7.43;1.30;;;;;;;-145.69;100.00;52646.41;5075215;28;20711;-80
2023/01/12 02:32:06;;;;;;;5.40;1.30;;;;;;;-145.69;100.00;52642.44;5075087;28;20662;-80
2023/01/12 02:34:39;;;;;;;10.23;1.30;;;;;;;-145.69;100.00;52612.72;5075257;28;20223;-81
2023/01/12 02:37:17;;;;;;;7.47;1.30;;;;;;;-145.69;100.00;52638.47;5075319;28;20225;-80
2023/01/12 02:39:49;;;;;;;8.60;1.33;;;;;;;-145.69;100.00;52646.41;5074482;28;20226;-79
2023/01/12 02:42:41;;;;;;;7.47;1.67;;;;;;;-145.69;100.00;52695.91;5074449;28;20226;-81
2023/01/12 02:45:19;;;;;;;12.70;1.40;;;;;;;-145.69;100.00;52634.50;5074944;28;20665;-80
2023/01/12 02:47:52;;;;;;;14.60;1.50;;;;;;;-145.69;100.00;52636.50;5075053;28;20206;-80
2023/01/12 02:50:24;;;;;;;7.37;1.73;;;;;;;-145.69;100.00;52608.75;5074912;28;20194;-80
2023/01/12 02:52:56;;;;;;;6.47;1.47;;;;;;;-145.69;100.00;52610.75;5075068;28;20195;-81
2023/01/12 02:55:25;;;;;;;7.30;1.30;;;;;;;-145.69;100.00;52664.22;5074592;28;20202;-80
2023/01/12 02:57:55;;;;;;;8.63;2.00;;;;;;;-145.69;100.00;52606.78;5074485;28;20237;-80
2023/01/12 03:00:22;;;;;;;9.20;1.40;;;;;;;-145.69;100.00;52610.75;5074574;28;20566;-80
2023/01/12 03:02:50;;;;;;;9.60;1.47;;;;;;;-145.69;100.00;52600.84;5071324;28;20206;-80
2023/01/12 03:05:17;;;;;;;12.90;1.50;;;;;;;-145.69;100.00;52642.44;5074389;28;20203;-80
2023/01/12 03:07:48;;;;;;;6.13;1.50;;;;;;;-145.69;100.00;52581.03;5074563;28;20650;-81
2023/01/12 03:10:32;;;;;;;13.37;1.73;;;;;;;-145.69;100.00;52618.66;5074846;28;20557;-81
2023/01/12 03:13:05;;;;;;;11.90;1.57;;;;;;;-145.69;100.00;52626.59;5074793;28;20233;-80
2023/01/12 03:15:33;;;;;;;11.70;1.60;;;;;;;-145.69;100.00;52608.75;5073969;28;21792;-81
2023/01/12 03:18:08;;;;;;;10.63;1.63;;;;;;;-145.69;100.00;52624.59;5074454;28;20227;-80
2023/01/12 03:20:39;;;;;;;10.47;1.60;;;;;;;-145.69;100.00;52594.91;5074149;28;20201;-80
2023/01/12 03:23:10;;;;;;;10.33;1.70;;;;;;;-145.69;100.00;52610.75;5074488;28;20238;-81
2023/01/12 03:25:41;;;;;;;5.93;1.40;;;;;;;-145.69;100.00;52620.66;5074038;28;20198;-80
2023/01/12 03:28:12;;;;;;;13.17;1.40;;;;;;;-145.69;100.00;52634.50;5074613;28;20218;-80
2023/01/12 03:30:42;;;;;;;7.73;1.50;;;;;;;-145.69;100.00;52581.03;5074372;28;20206;-80
2023/01/12 03:33:11;;;;;;;7.17;1.30;;;;;;;-145.69;100.00;52636.50;5073382;28;20693;-79
2023/01/12 03:35:43;;;;;;;14.10;1.50;;;;;;;-145.69;100.00;52614.72;5074057;28;20206;-80
2023/01/12 03:38:19;;;;;;;8.00;1.60;;;;;;;-145.69;100.00;52626.59;5073804;28;20226;-81
2023/01/12 03:40:50;;;;;;;6.23;1.33;;;;;;;-145.69;100.00;52622.63;5074250;28;20207;-80
2023/01/12 03:43:21;;;;;;;5.93;1.60;;;;;;;-145.69;100.00;52612.72;5073488;28;20223;-80
2023/01/12 03:45:50;;;;;;;13.93;1.77;;;;;;;-145.69;100.00;52650.34;5073780;28;20206;-80
2023/01/12 03:48:25;;;;;;;10.10;1.87;;;;;;;-145.69;100.00;52608.75;5073945;28;20198;-80
2023/01/12 03:50:57;;;;;;;12.07;1.80;;;;;;;-145.69;100.00;52618.66;5073393;28;20199;-81
2023/01/12 03:53:24;;;;;;;11.00;1.90;;;;;;;-145.69;100.00;52620.66;5073892;28;20206;-81
2023/01/12 03:55:54;;;;;;;8.10;1.37;;;;;;;-145.69;100.00;52626.59;5073394;28;20194;-80
2023/01/12 03:58:22;;;;;;;6.17;1.40;;;;;;;-145.69;100.00;52602.81;5073615;28;20230;-81
2023/01/12 04:00:49;;;;;;;8.40;1.77;;;;;;;-145.69;100.00;52598.84;5072827;28;20206;-79
2023/01/12 04:03:17;;;;;;;12.93;1.77;;;;;;;-145.69;100.00;52642.44;5073574;28;20202;-80
2023/01/12 04:05:45;;;;;;;12.57;1.77;;;;;;;-145.69;100.00;52634.50;5073590;28;20207;-80
2023/01/12 04:08:13;;;;;;;9.97;1.93;;;;;;;-145.69;100.00;52628.56;5073004;28;20195;-79
2023/01/12 04:10:40;;;;;;;10.63;1.70;;;;;;;-145.69;100.00;52604.81;5073578;28;20561;-80
2023/01/12 04:13:05;;;;;;;4.57;1.27;;;;;;;-145.69;100.00;52606.78;5073459;28;20206;-80
2023/01/12 04:15:36;;;;;;;11.47;2.10;;;;;;;-145.69;100.00;52620.66;5072973;28;20206;-80
2023/01/12 04:18:03;;;;;;;12.07;2.37;;;;;;;-145.69;100.00;52610.75;5072912;28;20206;-81
2023/01/12 04:20:31;;;;;;;6.73;1.40;;;;;;;-145.69;100.00;52624.59;5073149;28;20215;-80
2023/01/12 04:22:57;;;;;;;15.40;1.83;;;;;;;-145.69;100.00;52616.69;5073506;28;20203;-80
2023/01/12 04:25:24;;;;;;;5.23;1.80;;;;;;;-145.69;100.00;52626.59;5073075;28;20194;-80
2023/01/12 04:27:54;;;;;;;13.63;2.37;;;;;;;-145.69;100.00;52610.75;5072804;28;20690;-81
2023/01/12 04:30:25;;;;;;;11.30;1.80;;;;;;;-145.69;100.00;52604.81;5073606;28;20207;-80
2023/01/12 04:32:52;;;;;;;16.07;1.40;;;;;;;-145.69;100.00;52642.44;5073039;28;20191;-81
2023/01/12 04:35:19;;;;;;;7.87;1.60;;;;;;;-145.69;100.00;52618.66;5074361;28;20384;-81
2023/01/12 04:37:47;;;;;;;8.93;1.57;;;;;;;-145.69;100.00;52626.59;5073185;28;20204;-79
2023/01/12 04:40:15;;;;;;;5.70;1.50;;;;;;;-145.69;100.00;52626.59;5071621;28;20226;-80
2023/01/12 04:43:06;;;;;;;12.80;1.40;;;;;;;-145.69;100.00;52600.84;5072312;28;20558;-80
2023/01/12 04:45:34;;;;;;;11.63;1.80;;;;;;;-145.69;100.00;52614.72;5072579;28;20206;-80
2023/01/12 04:48:02;;;;;;;7.60;1.47;;;;;;;-145.69;100.00;52638.47;5072888;28;20708;-81
2023/01/12 04:50:29;;;;;;;9.03;1.97;;;;;;;-145.69;100.00;52590.94;5072531;28;20199;-80
2023/01/12 04:52:57;;;;;;;12.43;1.60;;;;;;;-145.69;100.00;52666.19;5072893;28;20194;-80
2023/01/12 04:55:23;;;;;;;8.53;1.73;;;;;;;-145.69;100.00;52586.97;5070917;28;20201;-80
2023/01/12 04:57:50;;;;;;;13.27;1.67;;;;;;;-145.69;100.00;52646.41;5072770;28;20198;-80
2023/01/12 05:00:17;;;;;;;10.73;1.40;;;;;;;-145.69;100.00;52626.59;5072713;28;20249;-80
2023/01/12 05:02:44;;;;;;;8.87;1.87;;;;;;;-145.69;100.00;52620.66;5072573;28;20203;-80
2023/01/12 05:05:10;;;;;;;16.73;1.83;;;;;;;-145.69;100.00;52598.84;5075672;28;20649;-80
2023/01/12 05:10:21;;;;;;;16.60;1.50;;;;;;;-145.69;100.00;52612.72;5078916;28;20206;-80
2023/01/12 05:10:23;;;;;;;12.60;1.73;;;;;;;-145.69;100.00;52614.72;5079243;28;20202;-81
2023/01/12 05:12:50;;;;;;;8.43;1.30;;;;;;;-145.69;100.00;52614.72;5071444;28;20209;-81
2023/01/12 05:15:17;;;;;;;8.83;1.10;;;;;;;-145.69;100.00;52650.34;5078752;28;20206;-80
2023/01/12 05:17:43;;;;;;;11.03;1.90;;;;;;;-145.69;100.00;52626.59;5079314;28;20194;-80
2023/01/12 05:20:11;;;;;;;9.33;1.70;;;;;;;-145.69;100.00;52585.00;5079202;28;20326;-81
2023/01/12 05:22:37;;;;;;;7.10;1.30;;;;;;;-145.69;100.00;52632.53;5078818;28;20653;-80
2023/01/12 05:25:05;;;;;;;12.20;1.80;;;;;;;-145.69;100.00;52614.72;5079275;28;20205;-81
2023/01/12 05:27:32;;;;;;;10.07;1.57;;;;;;;-145.69;100.00;52612.72;5079239;28;20198;-81
2023/01/12 05:29:59;;;;;;;8.53;1.27;;;;;;;-145.69;100.00;52622.63;5079172;28;20202;-80
2023/01/12 05:32:26;;;;;;;7.67;1.40;;;;;;;-145.69;100.00;52606.78;5079479;28;20245;-79
2023/01/12 05:34:52;;;;;;;11.57;1.33;;;;;;;-145.69;100.00;52640.44;5078977;28;20580;-80
2023/01/12 05:37:18;;;;;;;14.20;2.23;;;;;;;-145.69;100.00;52646.41;5079202;28;20539;-81
2023/01/12 05:39:45;;;;;;;10.10;1.47;;;;;;;-145.69;100.00;52634.50;5079166;28;20663;-80
2023/01/12 05:44:57;;;;;;;10.63;1.70;;;;;;;-145.69;100.00;52630.53;5078788;28;20197;-80
2023/01/12 05:47:23;;;;;;;10.60;1.27;;;;;;;-145.69;100.00;52583.00;5078835;28;20206;-81
2023/01/12 05:49:49;;;;;;;8.97;1.40;;;;;;;-145.69;100.00;52620.66;5079171;28;20209;-80
2023/01/12 05:52:16;;;;;;;9.33;1.57;;;;;;;-145.69;100.00;52624.59;5078773;28;20206;-81
2023/01/12 05:54:43;;;;;;;9.93;1.40;;;;;;;-145.69;100.00;52606.78;5079055;28;20208;-80
2023/01/12 05:57:10;;;;;;;8.37;1.70;;;;;;;-145.69;100.00;52606.78;5077673;28;20202;-79
2023/01/12 05:59:36;;;;;;;10.47;1.73;;;;;;;-145.69;100.00;52638.47;5078149;28;20227;-80
2023/01/12 06:02:04;;;;;;;10.87;1.50;;;;;;;-145.69;100.00;52598.84;5078684;28;20567;-80
2023/01/12 06:04:30;;;;;;;11.07;1.53;;;;;;;-145.69;100.00;52602.81;5078928;28;20205;-80
2023/01/12 06:06:57;;;;;;;8.70;1.40;;;;;;;-145.69;100.00;52555.28;5078494;28;20206;-80
2023/01/12 06:09:23;;;;;;;14.07;1.63;;;;;;;-145.69;100.00;52604.81;5078767;28;20202;-80
2023/01/12 06:14:34;;;;;;;6.63;1.47;;;;;;;-145.69;100.00;52614.72;5078723;28;20671;-80
2023/01/12 06:17:01;;;;;;;9.30;1.73;;;;;;;-145.69;100.00;52586.97;5075617;28;20198;-79
2023/01/12 06:19:28;;;;;;;8.70;1.80;;;;;;;-145.69;100.00;52592.91;5075696;28;20226;-80
2023/01/12 06:21:58;;;;;;;11.10;1.80;;;;;;;-145.69;100.00;52628.56;5075279;28;20191;-79
2023/01/12 06:24:24;;;;;;;4.53;1.43;;;;;;;-145.69;100.00;52586.97;5075350;28;20194;-81
2023/01/12 06:26:51;;;;;;;6.00;1.17;;;;;;;-145.69;100.00;52616.69;5075267;28;20199;-80
2023/01/12 06:29:17;;;;;;;8.33;1.20;;;;;;;-145.69;100.00;52608.75;5075315;28;20206;-80
2023/01/12 06:31:44;;;;;;;6.67;1.50;;;;;;;-145.69;100.00;52598.84;5075503;28;20198;-80
2023/01/12 06:34:10;;;;;;;3.97;1.30;;;;;;;-145.69;100.00;52602.81;5075113;28;20679;-80
2023/01/12 06:36:39;;;;;;;10.83;2.07;;;;;;;-145.69;100.00;52644.41;5073524;28;20198;-80
2023/01/12 06:39:06;;;;;;;4.47;1.50;;;;;;;-145.69;100.00;52634.50;5075156;28;20233;-80
2023/01/12 06:44:18;;;;;;;16.20;1.40;;;;;;;-145.69;100.00;52610.75;5074565;28;20624;-80
2023/01/12 06:46:44;;;;;;;4.57;1.00;;;;;;;-145.69;100.00;52598.84;5074781;28;20198;-80
2023/01/12 06:49:11;;;;;;;5.33;1.20;;;;;;;-145.69;100.00;52612.72;5074992;28;20668;-79
2023/01/12 06:51:38;;;;;;;7.77;1.33;;;;;;;-145.69;100.00;52630.53;5074532;28;20645;-80
2023/01/12 06:54:05;;;;;;;10.20;1.80;;;;;;;-145.69;100.00;52640.44;5074964;28;20198;-80
2023/01/12 06:56:31;;;;;;;8.20;1.27;;;;;;;-145.69;100.00;52628.56;5074983;28;20206;-81
2023/01/12 06:58:58;;;;;;;7.47;1.43;;;;;;;-145.69;100.00;52602.81;5074796;28;20222;-81
2023/01/12 07:01:25;;;;;;;6.80;1.30;;;;;;;-145.69;100.00;52606.78;5074436;28;20600;-80
2023/01/12 07:03:52;;;;;;;9.50;1.40;;;;;;;-145.69;100.00;52634.50;5074345;28;20601;-80
2023/01/12 07:06:19;;;;;;;9.90;1.37;;;;;;;-145.69;100.00;52608.75;5074433;28;20191;-80
2023/01/12 07:08:47;;;;;;;9.50;1.30;;;;;;;-145.69;100.00;52614.72;5074927;28;20199;-80
2023/01/12 07:11:14;;;;;;;9.57;1.60;;;;;;;-145.69;100.00;52610.75;5072695;28;20438;-80
2023/01/12 07:13:41;;;;;;;11.53;1.93;;;;;;;-145.69;100.00;52604.81;5074179;28;20530;-80
2023/01/12 07:16:08;;;;;;;9.33;1.37;;;;;;;-145.69;100.00;52622.63;5074178;28;20205;-81
2023/01/12 07:18:34;;;;;;;6.80;1.73;;;;;;;-145.69;100.00;52642.44;5074138;28;20187;-80
2023/01/12 07:21:04;;;;;;;4.43;1.37;;;;;;;-145.69;100.00;52630.53;5074106;28;20237;-80
2023/01/12 07:23:30;;;;;;;10.57;2.70;;;;;;;-145.69;100.00;52608.75;5074398;28;20195;-80
2023/01/12 07:25:58;;;;;;;5.20;1.80;;;;;;;-145.69;100.00;52590.94;5074522;28;20199;-80
2023/01/12 07:28:25;;;;;;;4.47;1.03;;;;;;;-145.69;100.00;52620.66;5073687;28;20600;-80
2023/01/12 07:30:51;;;;;;;6.27;1.77;;;;;;;-145.69;100.00;52614.72;5074064;28;20195;-81
2023/01/12 07:33:18;;;;;;;12.47;2.87;;;;;;;-145.69;100.00;52622.63;5074214;28;20207;-80
2023/01/12 07:35:44;;;;;;;5.33;1.30;;;;;;;-145.69;100.00;52632.53;5072782;28;20195;-82
2023/01/12 07:38:11;;;;;;;9.17;2.40;;;;;;;-145.69;100.00;52620.66;5072272;28;20245;-80
2023/01/12 07:40:37;;;;;;;7.07;2.00;;;;;;;-145.69;100.00;52606.78;5072612;28;20219;-80
2023/01/12 07:43:10;;;;;;;9.60;1.97;;;;;;;-145.69;100.00;52606.78;5073775;28;20222;-80
2023/01/12 07:45:37;;;;;;;8.40;2.17;;;;;;;-145.69;100.00;52606.78;5073562;28;20290;-80
2023/01/12 07:48:04;;;;;;;5.43;1.60;;;;;;;-145.69;100.00;52604.81;5073769;28;20294;-80
2023/01/12 07:50:30;;;;;;;4.77;1.50;;;;;;;-145.69;100.00;52644.41;5073994;28;20249;-80
2023/01/12 07:53:01;;;;;;;9.83;2.10;;;;;;;-145.69;100.00;52612.72;5073330;28;20442;-80
2023/01/12 07:55:28;;;;;;;4.23;0.97;;;;;;;-145.69;100.00;52632.53;5073967;28;20199;-80
2023/01/12 07:57:58;;;;;;;6.63;1.40;;;;;;;-145.69;100.00;52622.63;5073881;28;20209;-80
2023/01/12 08:00:28;;;;;;;6.80;1.77;;;;;;;-145.69;100.00;52610.75;5073656;28;20230;-83
2023/01/12 08:02:57;;;;;;;3.60;1.10;;;;;;;-145.69;100.00;52590.94;5073702;28;20202;-80
2023/01/12 08:05:24;;;;;;;5.60;1.23;;;;;;;-145.69;100.00;52561.22;5072701;28;20199;-80
2023/01/12 08:07:50;;;;;;;3.60;0.80;;;;;;;-145.69;100.00;52575.09;5073531;28;20201;-80
2023/01/12 08:10:17;;;;;;;8.90;1.67;;;;;;;-145.69;100.00;52604.81;5073434;28;20551;-80
2023/01/12 08:12:44;;;;;;;5.13;1.10;;;;;;;-145.69;100.00;52579.06;5073218;28;20569;-80
2023/01/12 08:15:12;;;;;;;12.17;1.30;;;;;;;-145.69;100.00;52618.66;5072878;28;20214;-81
2023/01/12 08:17:43;;;;;;;2.60;1.30;;;;;;;-145.69;100.00;52590.94;5072562;28;20669;-80
2023/01/12 08:20:15;;;;;;;6.40;1.33;;;;;;;-145.69;100.00;52590.94;5073024;28;20229;-80
2023/01/12 08:22:45;;;;;;;10.93;1.67;;;;;;;-145.69;100.00;52602.81;5073225;28;20203;-81
2023/01/12 08:25:14;;;;;;;5.10;1.07;;;;;;;-145.69;100.00;52602.81;5072959;28;20569;-81
2023/01/12 08:27:47;;;;;;;8.13;1.70;;;;;;;-145.69;100.00;52614.72;5072992;28;20199;-81
2023/01/12 08:30:15;;;;;;;5.60;1.00;;;;;;;-145.69;100.00;52577.06;5073242;28;20191;-83
2023/01/12 08:32:44;;;;;;;10.37;1.50;;;;;;;-145.69;100.00;52610.75;5073326;28;20206;-80
2023/01/12 08:35:11;;;;;;;4.50;1.33;;;;;;;-145.69;100.00;52622.63;5072978;28;20868;-81
2023/01/12 08:37:38;;;;;;;8.37;3.13;;;;;;;-145.69;100.00;52588.97;5073553;28;20210;-82
2023/01/12 08:40:06;;;;;;;7.13;1.73;;;;;;;-145.69;100.00;52588.97;5072892;28;20234;-83
2023/01/12 08:42:32;;;;;;;5.50;1.23;;;;;;;-145.69;100.00;52585.00;5073206;28;20214;-81
2023/01/12 08:44:59;;;;;;;8.80;1.70;;;;;;;-145.69;100.00;52602.81;5072995;28;20198;-81
2023/01/12 08:47:29;;;;;;;6.50;1.40;;;;;;;-145.69;100.00;52606.78;5073126;28;20256;-80
2023/01/12 08:49:59;;;;;;;2.53;1.20;;;;;;;-145.69;100.00;52575.09;5072978;28;20206;-81
2023/01/12 08:52:28;;;;;;;6.30;0.93;;;;;;;-145.69;100.00;52610.75;5072958;28;20215;-80
2023/01/12 08:54:54;;;;;;;11.33;1.30;;;;;;;-145.69;100.00;52579.06;5064526;28;20221;-79
2023/01/12 08:57:21;;;;;;;4.60;1.27;;;;;;;-145.69;100.00;52561.22;5073098;28;20214;-81
2023/01/12 08:59:48;;;;;;;3.13;1.00;;;;;;;-145.69;100.00;52614.72;5072854;28;20226;-80
2023/01/12 09:02:15;;;;;;;5.53;1.10;;;;;;;-145.69;100.00;52575.09;5072357;28;20202;-80
2023/01/12 09:04:42;;;;;;;5.40;1.23;;;;;;;-145.69;100.00;52594.91;5072514;28;20199;-79
2023/01/12 09:07:11;;;;;;;5.77;1.20;;;;;;;-145.69;100.00;52567.16;5072466;28;20206;-79
2023/01/12 09:09:38;;;;;;;8.80;2.03;;;;;;;-145.69;100.00;52577.06;5072658;28;20209;-78
2023/01/12 09:12:05;;;;;;;7.93;1.10;;;;;;;-145.69;100.00;52586.97;5072627;28;20297;-79
2023/01/12 09:14:37;;;;;;;2.83;1.00;;;;;;;-145.69;100.00;52586.97;5072586;28;20190;-79
2023/01/12 09:17:03;;;;;;;3.47;1.20;;;;;;;-145.69;100.00;52602.81;5072586;28;20775;-79
2023/01/12 09:19:30;;;;;;;9.20;1.33;;;;;;;-145.69;100.00;52610.75;5071867;28;20199;-79
2023/01/12 09:21:57;;;;;;;2.90;1.17;;;;;;;-145.69;100.00;52585.00;5072290;28;20218;-79
2023/01/12 09:24:24;;;;;;;3.10;1.00;;;;;;;-145.69;100.00;52585.00;5072091;28;20665;-79
2023/01/12 09:26:51;;;;;;;4.90;1.20;;;;;;;-145.69;100.00;52610.75;5072734;28;20209;-79
2023/01/12 09:29:17;;;;;;;4.13;0.93;;;;;;;-145.69;100.00;52592.91;5072560;28;20203;-79
2023/01/12 09:31:45;;;;;;;3.07;1.07;;;;;;;-145.69;100.00;52585.00;5071829;28;20596;-79
2023/01/12 09:34:12;;;;;;;3.17;1.00;;;;;;;-145.69;100.00;52602.81;5071990;28;20257;-79
2023/01/12 09:36:39;;;;;;;2.73;0.97;;;;;;;-145.69;100.00;52575.09;5069515;28;20209;-79
2023/01/12 09:39:07;;;;;;;2.47;0.87;;;;;;;-145.69;100.00;52602.81;5072006;28;20226;-80
2023/01/12 09:47:16;;;;;;;4.20;0.90;;;;;;;-145.69;100.00;52575.09;5072137;28;20283;-78
2023/01/12 09:49:47;;;;;;;3.07;1.00;;;;;;;-145.69;100.00;52571.13;5072403;28;20199;-80
2023/01/12 09:52:18;;;;;;;7.25;1.30;;;;;;;-145.69;100.00;52600.84;5074330;28;20438;-80
2023/01/12 09:54:48;;;;;;;2.43;0.90;;;;;;;-145.69;100.00;52600.84;5076599;28;20202;-82
2023/01/12 09:57:46;;;;;;;6.17;1.73;;;;;;;-145.69;100.00;52573.13;5076313;28;20199;-82
2023/01/12 10:00:15;;;;;;;4.83;1.00;;;;;;;-145.69;100.00;52551.31;5075986;28;20222;-80
2023/01/12 10:02:46;;;;;;;17.97;5.20;;;;;;;-145.69;100.00;52579.06;5075705;28;20206;-80
2023/01/12 10:05:24;;;;;;;3.47;1.03;;;;;;;-145.69;100.00;52596.88;5075977;28;20195;-81
2023/01/12 10:07:54;;;;;;;10.50;1.73;;;;;;;-145.69;100.00;52594.91;5055853;28;20662;-79
2023/01/12 10:10:20;;;;;;;6.80;1.87;;;;;;;-145.69;100.00;52590.94;5056115;28;20210;-81
2023/01/12 10:12:54;;;;;;;4.27;1.10;;;;;;;-145.69;100.00;52594.91;5075438;28;20202;-80
2023/01/12 10:15:31;;;;;;;4.87;1.40;;;;;;;-145.69;100.00;52573.13;5074494;28;20292;-80
2023/01/12 10:18:03;;;;;;;4.40;1.83;;;;;;;-145.69;100.00;52610.75;5074883;28;20201;-81
2023/01/12 10:20:36;;;;;;;3.93;0.90;;;;;;;-145.69;100.00;52571.13;5075543;28;20551;-80
2023/01/12 10:23:13;;;;;;;8.13;1.13;;;;;;;-145.69;100.00;52600.84;5075696;28;20207;-80
2023/01/12 10:25:42;;;;;;;3.80;1.23;;;;;;;-145.69;100.00;52583.00;5075843;28;20202;-81
2023/01/12 10:28:16;;;;;;;12.57;1.80;;;;;;;-145.69;100.00;52616.69;5076108;28;20205;-80
2023/01/12 10:30:43;;;;;;;4.60;1.10;;;;;;;-145.69;100.00;52579.06;5073359;28;20202;-79
2023/01/12 10:33:13;;;;;;;8.83;1.47;;;;;;;-145.69;100.00;52590.94;5073611;28;20190;-80
2023/01/12 10:35:51;;;;;;;8.10;1.37;;;;;;;-145.69;100.00;52571.13;5073329;28;20199;-80
2023/01/12 10:38:23;;;;;;;2.70;1.30;;;;;;;-145.69;100.00;52565.19;5073597;28;20206;-80
2023/01/12 10:41:04;;;;;;;5.07;1.23;;;;;;;-145.69;100.00;52557.28;5073056;28;20218;-80
2023/01/12 10:43:33;;;;;;;5.47;2.07;;;;;;;-145.69;100.00;52565.19;5073218;28;20231;-81
2023/01/12 10:46:11;;;;;;;4.47;1.60;;;;;;;-145.69;100.00;52555.28;5075246;28;20226;-80
2023/01/12 10:48:39;;;;;;;8.40;1.40;;;;;;;-145.69;100.00;52624.59;5075232;28;20209;-80
2023/01/12 10:51:18;;;;;;;2.87;1.07;;;;;;;-145.69;100.00;52567.16;5075040;28;20690;-80
2023/01/12 10:53:47;;;;;;;3.80;1.33;;;;;;;-145.69;100.00;52545.38;5074861;28;20198;-80
2023/01/12 10:56:23;;;;;;;2.07;0.60;;;;;;;-145.69;100.00;52547.38;5074897;28;20237;-80
2023/01/12 10:59:07;;;;;;;3.90;1.00;;;;;;;-145.69;100.00;52563.22;5075134;28;20213;-80
2023/01/12 11:01:49;;;;;;;1.60;0.90;;;;;;;-145.69;100.00;52555.28;5074903;28;20684;-80
2023/01/12 11:04:20;;;;;;;6.00;1.50;;;;;;;-145.69;100.00;52606.78;5068678;28;20191;-80
2023/01/12 11:06:56;;;;;;;2.50;1.00;;;;;;;-145.69;100.00;52555.28;5074526;28;20209;-80
2023/01/12 11:09:25;;;;;;;3.70;1.00;;;;;;;-145.69;100.00;52573.13;5074607;28;20209;-81
2023/01/12 11:11:56;;;;;;;6.43;1.40;;;;;;;-145.69;100.00;52594.91;5074410;28;20233;-81
2023/01/12 11:14:28;;;;;;;3.03;1.00;;;;;;;-145.69;100.00;52594.91;5074557;28;20549;-80
2023/01/12 11:17:05;;;;;;;2.20;0.60;;;;;;;-145.69;100.00;52581.03;5074456;28;20680;-80
2023/01/12 11:19:37;;;;;;;4.50;0.90;;;;;;;-145.69;100.00;52604.81;5074629;28;20213;-80
2023/01/12 11:22:08;;;;;;;3.17;1.00;;;;;;;-145.69;100.00;52610.75;5074394;28;20230;-81
2023/01/12 11:24:41;;;;;;;3.90;1.07;;;;;;;-145.69;100.00;52543.41;5074413;28;20206;-80
2023/01/12 11:27:16;;;;;;;3.23;1.00;;;;;;;-145.69;100.00;52583.00;5072973;28;20653;-81
2023/01/12 11:29:54;;;;;;;2.80;0.80;;;;;;;-145.69;100.00;52594.91;5073631;28;20216;-80
2023/01/12 11:32:29;;;;;;;2.53;0.90;;;;;;;-145.69;100.00;52543.41;5074361;28;20225;-81
2023/01/12 11:34:58;;;;;;;8.80;0.90;;;;;;;-145.69;100.00;52594.91;5074203;28;20194;-80
2023/01/12 11:37:25;;;;;;;4.83;0.80;;;;;;;-145.69;100.00;52585.00;5074182;28;20203;-81
2023/01/12 11:40:00;;;;;;;1.87;0.70;;;;;;;-145.69;100.00;52588.97;5074210;28;20207;-81
2023/01/12 11:45:21;;;;;;;4.53;1.00;;;;;;;-145.69;100.00;52571.13;5073853;28;20206;-80